Time;durP1;ratioP1;P1;durP2;ratioP2;P2;SDS_P1;SDS_P2;PMS_P1;PMS_P2;Temp;Humidity;BMP_temperature;BMP_pressure;BME280_temperature;BME280_humidity;BME280_pressure;Samples;Min_cycle;Max_cycle;Signal;HPM_P1;HPM_P2
2021/11/08 00:01:06;;;;;;;14.75;2.47;;;9.50;91.30;;;;;;5001831;28;20044;-66
2021/11/08 00:03:35;;;;;;;17.00;2.80;;;9.50;91.30;;;;;;5008291;28;20657;-68
2021/11/08 00:06:04;;;;;;;18.13;3.75;;;9.50;91.50;;;;;;5013063;28;20178;-68
2021/11/08 00:08:32;;;;;;;13.43;2.28;;;9.40;91.60;;;;;;4999891;28;20052;-68
2021/11/08 00:10:58;;;;;;;11.68;1.85;;;9.40;91.90;;;;;;5009653;28;20828;-68
2021/11/08 00:13:24;;;;;;;10.05;1.92;;;9.30;92.20;;;;;;5009927;28;20038;-67
2021/11/08 00:16:17;;;;;;;16.58;2.05;;;9.30;92.30;;;;;;5005189;28;20041;-68
2021/11/08 00:19:01;;;;;;;12.15;1.80;;;9.30;92.40;;;;;;5004866;28;20045;-68
2021/11/08 00:21:31;;;;;;;9.40;2.20;;;9.30;92.40;;;;;;5011548;28;20065;-68
2021/11/08 00:23:57;;;;;;;9.48;1.38;;;9.30;92.70;;;;;;5008031;28;20046;-68
2021/11/08 00:26:23;;;;;;;9.25;2.17;;;9.20;93.10;;;;;;5003611;28;20038;-68
2021/11/08 00:28:49;;;;;;;10.60;2.03;;;9.10;93.00;;;;;;5006992;28;20091;-68
2021/11/08 00:31:15;;;;;;;12.93;2.45;;;9.10;93.20;;;;;;5010943;28;20042;-68
2021/11/08 00:33:41;;;;;;;12.57;2.17;;;9.00;93.30;;;;;;5005880;28;20034;-69
2021/11/08 00:36:07;;;;;;;14.40;2.15;;;8.90;93.50;;;;;;5003451;28;20034;-68
2021/11/08 00:38:34;;;;;;;11.50;1.70;;;8.90;93.60;;;;;;5008877;28;20040;-68
2021/11/08 00:41:01;;;;;;;7.70;1.50;;;9.00;93.80;;;;;;5009215;28;20041;-66
2021/11/08 00:43:27;;;;;;;13.25;2.08;;;9.00;93.70;;;;;;5004510;28;20030;-68
2021/11/08 00:45:53;;;;;;;10.88;1.65;;;9.00;93.70;;;;;;5015800;28;20758;-68
2021/11/08 00:48:22;;;;;;;9.13;2.05;;;9.00;93.70;;;;;;5011931;28;20044;-68
2021/11/08 00:50:50;;;;;;;12.90;1.95;;;9.10;93.70;;;;;;5007501;28;20379;-68
2021/11/08 00:53:17;;;;;;;14.45;2.65;;;9.00;93.50;;;;;;5002220;28;20137;-68
2021/11/08 00:55:44;;;;;;;9.75;1.52;;;9.00;93.80;;;;;;5004888;28;20065;-68
2021/11/08 00:58:34;;;;;;;11.35;1.88;;;9.00;93.80;;;;;;5010640;28;20120;-68
2021/11/08 01:01:03;;;;;;;6.38;1.40;;;9.10;93.80;;;;;;5016434;28;20044;-68
2021/11/08 01:03:30;;;;;;;10.80;2.25;;;9.10;93.80;;;;;;5018148;28;20049;-68
2021/11/08 01:05:56;;;;;;;9.70;1.80;;;9.10;93.70;;;;;;5013605;28;20077;-68
2021/11/08 01:08:22;;;;;;;13.10;2.03;;;9.00;93.70;;;;;;5008868;28;20802;-68
2021/11/08 01:10:48;;;;;;;8.05;1.50;;;9.00;93.70;;;;;;5003163;28;20089;-67
2021/11/08 01:13:14;;;;;;;9.68;1.20;;;9.10;93.70;;;;;;5003109;28;20037;-68
2021/11/08 01:15:40;;;;;;;8.70;1.55;;;9.10;93.60;;;;;;5013451;28;20034;-68
2021/11/08 01:18:06;;;;;;;12.82;1.50;;;9.20;93.60;;;;;;5010125;28;20030;-68
2021/11/08 01:20:34;;;;;;;13.18;1.77;;;9.20;93.60;;;;;;5003530;28;20034;-68
2021/11/08 01:23:02;;;;;;;10.35;1.85;;;9.30;93.70;;;;;;5003267;28;20136;-68
2021/11/08 01:25:29;;;;;;;11.23;1.67;;;9.30;93.60;;;;;;5009807;28;20834;-68
2021/11/08 01:27:55;;;;;;;12.05;1.70;;;9.20;93.40;;;;;;5005095;28;20046;-68
2021/11/08 01:30:24;;;;;;;9.25;1.50;;;9.20;93.70;;;;;;5012074;28;20042;-68
2021/11/08 01:32:56;;;;;;;10.13;1.73;;;9.20;93.80;;;;;;5007508;28;20497;-67
2021/11/08 01:35:37;;;;;;;10.45;1.58;;;9.20;93.80;;;;;;5011410;28;20406;-68
2021/11/08 01:38:11;;;;;;;7.72;1.58;;;9.20;93.70;;;;;;5015922;28;20045;-68
2021/11/08 01:40:39;;;;;;;8.68;1.83;;;9.30;93.60;;;;;;5002749;28;20105;-68
2021/11/08 01:43:07;;;;;;;10.73;1.50;;;9.30;93.50;;;;;;5007939;28;20041;-68
2021/11/08 01:45:34;;;;;;;11.68;1.85;;;9.30;93.30;;;;;;5013802;28;20179;-68
2021/11/08 01:47:59;;;;;;;8.77;1.70;;;9.30;93.50;;;;;;5018431;28;20524;-68
2021/11/08 01:50:27;;;;;;;10.32;1.75;;;9.30;93.50;;;;;;5014881;28;20037;-68
2021/11/08 01:52:54;;;;;;;10.40;2.17;;;9.40;93.40;;;;;;5011051;28;20124;-68
2021/11/08 01:55:21;;;;;;;6.63;1.48;;;9.30;93.30;;;;;;5014558;28;20037;-68
2021/11/08 01:57:48;;;;;;;8.20;1.60;;;9.20;93.50;;;;;;5001813;28;20034;-68
2021/11/08 02:00:16;;;;;;;14.75;1.80;;;9.20;93.60;;;;;;5006409;28;20578;-68
2021/11/08 02:02:42;;;;;;;14.35;1.65;;;9.30;93.70;;;;;;5010909;28;20034;-68
2021/11/08 02:05:09;;;;;;;10.27;1.60;;;9.30;93.50;;;;;;5017379;28;20576;-68
2021/11/08 02:07:35;;;;;;;11.93;1.58;;;9.40;93.50;;;;;;5004272;28;20140;-69
2021/11/08 02:10:04;;;;;;;9.50;2.10;;;9.40;93.20;;;;;;5009594;28;20191;-68
2021/11/08 02:12:30;;;;;;;13.10;2.20;;;9.30;93.30;;;;;;5012894;28;20045;-68
2021/11/08 02:14:56;;;;;;;6.63;1.55;;;9.30;93.50;;;;;;5017807;28;20045;-67
2021/11/08 02:17:21;;;;;;;8.45;1.60;;;9.30;93.40;;;;;;5007077;28;20022;-68
2021/11/08 02:19:47;;;;;;;15.63;1.83;;;9.40;93.20;;;;;;5008671;28;20192;-68
2021/11/08 02:22:13;;;;;;;12.00;2.17;;;9.30;93.30;;;;;;5013350;28;20029;-69
2021/11/08 02:24:42;;;;;;;8.70;1.67;;;9.30;93.60;;;;;;5000940;28;20038;-68
2021/11/08 02:27:08;;;;;;;6.68;1.58;;;9.20;93.70;;;;;;5003397;28;20095;-68
2021/11/08 02:29:35;;;;;;;13.43;2.05;;;9.30;93.80;;;;;;5008770;28;20691;-69
2021/11/08 02:32:04;;;;;;;11.18;1.70;;;9.30;93.80;;;;;;5013870;28;20037;-68
2021/11/08 02:34:30;;;;;;;8.40;1.40;;;9.30;93.70;;;;;;5016568;28;20045;-70
2021/11/08 02:36:55;;;;;;;9.82;1.70;;;9.30;93.70;;;;;;5012937;28;20044;-70
2021/11/08 02:39:33;;;;;;;13.07;2.65;;;9.30;93.80;;;;;;5007929;28;20057;-70
2021/11/08 02:41:59;;;;;;;7.82;1.50;;;9.30;93.90;;;;;;5001978;28;20119;-70
2021/11/08 02:44:25;;;;;;;5.43;1.40;;;9.40;93.90;;;;;;5016786;28;20045;-71
2021/11/08 02:46:53;;;;;;;17.52;2.22;;;9.40;93.90;;;;;;5011006;28;20045;-70
2021/11/08 02:49:24;;;;;;;10.05;1.85;;;9.40;94.20;;;;;;5004793;28;20034;-69
2021/11/08 02:51:59;;;;;;;8.32;1.77;;;9.40;93.90;;;;;;5004811;28;20767;-70
2021/11/08 02:54:31;;;;;;;9.38;1.40;;;9.40;93.90;;;;;;5001277;28;20046;-70
2021/11/08 02:56:58;;;;;;;9.95;1.70;;;9.40;94.00;;;;;;5009417;28;20180;-70
2021/11/08 02:59:26;;;;;;;13.00;1.52;;;9.40;94.00;;;;;;5012490;28;20092;-70
2021/11/08 03:01:53;;;;;;;12.70;1.45;;;9.40;93.90;;;;;;5017373;28;20033;-70
2021/11/08 03:04:24;;;;;;;15.02;2.17;;;9.40;93.90;;;;;;5012899;28;20048;-70
2021/11/08 03:06:51;;;;;;;13.85;2.13;;;9.40;93.90;;;;;;5010533;28;20155;-70
2021/11/08 03:09:22;;;;;;;12.80;2.15;;;9.40;93.90;;;;;;5014134;28;20072;-70
2021/11/08 03:11:49;;;;;;;9.48;1.45;;;9.40;94.00;;;;;;5000185;28;20084;-70
2021/11/08 03:14:17;;;;;;;12.70;2.10;;;9.50;93.90;;;;;;5006045;28;20070;-70
2021/11/08 03:16:50;;;;;;;8.40;1.40;;;9.50;94.10;;;;;;5009572;28;20036;-70
2021/11/08 03:21:50;;;;;;;13.25;1.80;;;9.50;94.00;;;;;;5015085;28;20069;-69
2021/11/08 03:24:36;;;;;;;10.82;2.83;;;9.60;93.80;;;;;;5008513;28;20699;-70
2021/11/08 03:27:21;;;;;;;14.65;1.88;;;9.60;93.70;;;;;;5012688;28;20045;-70
2021/11/08 03:29:47;;;;;;;7.88;1.35;;;9.60;93.50;;;;;;5016564;28;20227;-70
2021/11/08 03:32:16;;;;;;;7.10;1.58;;;9.60;93.50;;;;;;5012062;28;20049;-69
2021/11/08 03:34:50;;;;;;;13.60;1.77;;;9.60;93.60;;;;;;5005100;28;20034;-70
2021/11/08 03:37:18;;;;;;;12.77;1.97;;;9.70;93.50;;;;;;5000086;28;20033;-69
2021/11/08 03:39:44;;;;;;;13.57;2.22;;;9.70;93.50;;;;;;5001893;28;20038;-70
2021/11/08 03:42:09;;;;;;;10.13;1.50;;;9.70;93.40;;;;;;5005869;28;20073;-68
2021/11/08 03:44:36;;;;;;;8.20;1.70;;;9.70;93.40;;;;;;5012344;28;20037;-70
2021/11/08 03:47:02;;;;;;;10.60;2.08;;;9.70;93.50;;;;;;5019852;28;20038;-70
2021/11/08 03:49:28;;;;;;;7.90;1.63;;;9.70;93.60;;;;;;5018629;28;20042;-69
2021/11/08 03:51:54;;;;;;;5.13;1.20;;;9.70;93.70;;;;;;5013101;28;20512;-69
2021/11/08 03:54:19;;;;;;;10.23;2.10;;;9.60;93.80;;;;;;5007012;28;20073;-70
2021/11/08 03:56:45;;;;;;;6.93;1.60;;;9.50;93.90;;;;;;5004135;28;20034;-69
2021/11/08 03:59:11;;;;;;;11.70;2.35;;;9.50;94.10;;;;;;5005941;28;20052;-70
2021/11/08 04:01:37;;;;;;;8.68;1.45;;;9.60;94.10;;;;;;5012576;28;20037;-70
2021/11/08 04:04:05;;;;;;;9.98;1.95;;;9.60;94.00;;;;;;5017584;28;20049;-69
2021/11/08 04:06:32;;;;;;;11.27;2.42;;;9.70;94.00;;;;;;5018399;28;20144;-70
2021/11/08 04:08:59;;;;;;;8.93;1.63;;;9.70;93.90;;;;;;5015154;28;20059;-70
2021/11/08 04:11:27;;;;;;;9.40;1.63;;;9.60;93.80;;;;;;5012089;28;20058;-70
2021/11/08 04:13:56;;;;;;;10.95;1.80;;;9.70;93.60;;;;;;5018750;28;20050;-68
2021/11/08 04:16:22;;;;;;;10.30;1.67;;;9.70;93.70;;;;;;5017792;28;20037;-70
2021/11/08 04:18:52;;;;;;;14.93;3.15;;;9.70;93.70;;;;;;5012615;28;20030;-70
2021/11/08 04:21:20;;;;;;;9.75;1.92;;;9.70;93.80;;;;;;5007677;28;20046;-70
2021/11/08 04:23:46;;;;;;;15.02;2.05;;;9.70;93.70;;;;;;5000915;28;20037;-69
2021/11/08 04:26:17;;;;;;;8.77;1.90;;;9.70;93.60;;;;;;5005709;28;20046;-69
2021/11/08 04:28:51;;;;;;;10.15;2.30;;;9.80;94.00;;;;;;5011768;28;20038;-69
2021/11/08 04:31:17;;;;;;;11.32;2.17;;;9.80;93.60;;;;;;5005765;28;20061;-70
2021/11/08 04:33:47;;;;;;;8.00;1.83;;;9.80;93.60;;;;;;5003578;28;20043;-70
2021/11/08 04:41:34;;;;;;;11.68;1.45;;;9.90;93.30;;;;;;5019157;28;20025;-70
2021/11/08 04:46:47;;;;;;;17.00;2.20;;;10.00;93.00;;;;;;5015117;28;20476;-69
2021/11/08 04:52:03;;;;;;;9.85;1.67;;;10.00;93.00;;;;;;5003340;28;20034;-69
2021/11/08 04:54:37;;;;;;;7.35;1.52;;;10.10;93.20;;;;;;5007704;28;20121;-70
2021/11/08 05:31:51;;;;;;;11.88;1.67;;;10.10;92.50;;;;;;5015053;28;20034;-69
2021/11/08 05:34:18;;;;;;;8.88;1.63;;;10.20;92.50;;;;;;5013105;28;20108;-69
2021/11/08 05:36:45;;;;;;;12.80;1.60;;;10.20;92.40;;;;;;5018116;28;20045;-69
2021/11/08 05:39:11;;;;;;;4.47;1.70;;;10.20;92.30;;;;;;5016452;28;20374;-70
2021/11/08 05:41:40;;;;;;;7.95;1.38;;;10.20;92.30;;;;;;5011222;28;20657;-70
2021/11/08 05:44:06;;;;;;;13.65;1.95;;;10.20;92.10;;;;;;5018502;28;20413;-70
2021/11/08 05:46:33;;;;;;;14.88;1.80;;;10.20;92.10;;;;;;5023095;28;20048;-70
2021/11/08 05:48:59;;;;;;;13.82;1.77;;;10.20;92.10;;;;;;5014727;28;20513;-70
2021/11/08 05:51:26;;;;;;;8.65;1.48;;;10.20;92.00;;;;;;5016679;28;20275;-70
2021/11/08 05:53:53;;;;;;;11.90;1.65;;;10.20;92.10;;;;;;5021442;28;20117;-70
2021/11/08 05:56:31;;;;;;;8.77;1.48;;;10.20;92.10;;;;;;5026819;28;20016;-70
2021/11/08 05:59:27;;;;;;;12.63;2.53;;;10.20;92.00;;;;;;5006590;28;20041;-70
2021/11/08 06:51:50;;;;;;;7.47;1.50;;;10.40;91.20;;;;;;5010928;28;20059;-70
2021/11/08 06:54:18;;;;;;;12.18;1.70;;;10.50;91.20;;;;;;5016147;28;20112;-69
2021/11/08 06:56:50;;;;;;;9.95;2.28;;;10.50;91.10;;;;;;5017002;28;20033;-69
2021/11/08 06:59:19;;;;;;;10.00;1.58;;;10.60;91.10;;;;;;5014133;28;20041;-70
2021/11/08 07:01:48;;;;;;;7.32;1.20;;;10.60;91.00;;;;;;5014929;28;20116;-70
2021/11/08 07:04:17;;;;;;;8.45;1.50;;;10.70;90.90;;;;;;5016167;28;20037;-69
2021/11/08 07:06:43;;;;;;;9.40;1.42;;;10.70;90.70;;;;;;5015864;28;20218;-69
2021/11/08 07:09:09;;;;;;;8.80;1.25;;;10.80;90.40;;;;;;5016016;28;20029;-69
2021/11/08 07:11:34;;;;;;;10.88;1.60;;;10.80;90.40;;;;;;5015930;28;20044;-69
2021/11/08 07:14:00;;;;;;;10.32;1.70;;;10.90;90.30;;;;;;5019049;28;20041;-69
2021/11/08 07:16:26;;;;;;;7.68;1.70;;;11.00;90.10;;;;;;5019010;28;20517;-69
2021/11/08 07:18:51;;;;;;;10.32;1.48;;;10.90;90.00;;;;;;5022371;28;20088;-69
2021/11/08 07:21:17;;;;;;;8.48;1.35;;;10.90;89.80;;;;;;5014406;28;20041;-69
2021/11/08 07:23:43;;;;;;;7.22;1.63;;;11.00;89.90;;;;;;5018766;28;20139;-68
2021/11/08 07:26:11;;;;;;;8.23;1.48;;;11.20;89.70;;;;;;5014686;28;20075;-69
2021/11/08 07:28:38;;;;;;;5.78;1.50;;;11.20;88.50;;;;;;5014322;28;20103;-69
2021/11/08 07:31:04;;;;;;;5.97;1.48;;;11.30;88.20;;;;;;5010199;28;20769;-69
2021/11/08 07:33:31;;;;;;;9.88;1.77;;;11.30;88.40;;;;;;5010062;28;20811;-69
2021/11/08 07:35:58;;;;;;;4.47;1.30;;;11.30;87.90;;;;;;5013576;28;20056;-69
2021/11/08 07:38:24;;;;;;;9.02;1.70;;;11.20;88.20;;;;;;5014355;28;20036;-69
2021/11/08 07:40:50;;;;;;;11.55;2.25;;;11.20;88.40;;;;;;5012889;28;20038;-68
2021/11/08 07:43:16;;;;;;;12.73;1.90;;;11.30;88.00;;;;;;5016749;28;20041;-69
2021/11/08 07:45:42;;;;;;;10.98;1.48;;;11.30;87.30;;;;;;5018108;28;20509;-69
2021/11/08 07:48:08;;;;;;;8.57;1.75;;;11.50;87.10;;;;;;5019235;28;20478;-69
2021/11/08 07:50:34;;;;;;;11.13;1.80;;;11.60;86.40;;;;;;5016574;28;20041;-69
2021/11/08 07:53:00;;;;;;;10.15;2.20;;;11.50;86.40;;;;;;5022275;28;20044;-69
2021/11/08 07:55:26;;;;;;;7.78;1.25;;;11.50;86.60;;;;;;5020807;28;20496;-69
2021/11/08 07:57:52;;;;;;;7.28;1.98;;;11.40;86.80;;;;;;5016320;28;20799;-69
2021/11/08 08:00:18;;;;;;;14.10;1.80;;;11.40;86.80;;;;;;5015021;28;20038;-69
2021/11/08 08:02:44;;;;;;;15.52;2.05;;;11.40;86.40;;;;;;5016247;28;20030;-70
2021/11/08 08:05:10;;;;;;;9.30;1.85;;;11.40;86.10;;;;;;5015403;28;20207;-70
2021/11/08 08:07:35;;;;;;;9.57;1.75;;;11.50;86.20;;;;;;5014383;28;20125;-70
2021/11/08 08:10:02;;;;;;;13.05;2.25;;;11.60;85.60;;;;;;5014111;28;20021;-67
2021/11/08 08:12:28;;;;;;;11.13;2.20;;;11.80;84.90;;;;;;5016374;28;20091;-70
2021/11/08 08:14:54;;;;;;;8.52;1.80;;;12.00;84.00;;;;;;5015059;28;20042;-69
2021/11/08 08:17:19;;;;;;;7.93;1.77;;;12.00;83.60;;;;;;5009871;28;20038;-69
2021/11/08 08:19:48;;;;;;;8.63;1.40;;;12.10;83.10;;;;;;5002984;28;20091;-69
2021/11/08 08:22:14;;;;;;;8.25;1.73;;;12.20;83.00;;;;;;5012623;28;20029;-70
2021/11/08 08:24:39;;;;;;;8.70;1.50;;;12.20;83.00;;;;;;5012659;28;20039;-68
2021/11/08 08:27:05;;;;;;;13.43;2.00;;;12.30;82.20;;;;;;5006114;28;20057;-68
2021/11/08 08:29:34;;;;;;;15.95;2.42;;;12.40;82.10;;;;;;5014739;28;20124;-69
2021/11/08 08:32:00;;;;;;;10.88;1.90;;;12.20;81.60;;;;;;5016654;28;20337;-69
2021/11/08 08:34:29;;;;;;;9.55;2.15;;;12.10;82.70;;;;;;5019191;28;20072;-70
2021/11/08 08:36:56;;;;;;;8.43;2.10;;;12.10;82.90;;;;;;5026093;28;20057;-70
2021/11/08 08:39:23;;;;;;;10.30;2.00;;;12.10;82.90;;;;;;5018877;28;20608;-69
2021/11/08 08:41:50;;;;;;;9.82;2.03;;;12.30;82.50;;;;;;5015500;28;20052;-69
2021/11/08 08:44:16;;;;;;;6.30;1.58;;;12.30;82.30;;;;;;5016656;28;20029;-69
2021/11/08 08:46:43;;;;;;;10.55;3.15;;;12.30;81.90;;;;;;5013759;28;20182;-69
2021/11/08 08:49:12;;;;;;;8.75;2.13;;;12.20;82.10;;;;;;5021814;28;20049;-69
2021/11/08 08:51:38;;;;;;;8.68;2.08;;;12.30;82.30;;;;;;5018831;28;20537;-70
2021/11/08 08:54:04;;;;;;;11.13;1.70;;;12.30;82.00;;;;;;5019654;28;20037;-69
2021/11/08 08:56:30;;;;;;;8.55;1.35;;;12.20;81.40;;;;;;5010753;28;20033;-68
2021/11/08 08:58:56;;;;;;;7.95;1.52;;;12.30;81.70;;;;;;5030591;28;20028;-69
2021/11/08 09:01:24;;;;;;;13.98;2.15;;;12.50;81.70;;;;;;5010403;28;20025;-71
2021/11/08 09:03:51;;;;;;;9.63;1.85;;;12.60;80.50;;;;;;5011905;28;20545;-70
2021/11/08 09:06:17;;;;;;;6.07;1.42;;;12.90;80.00;;;;;;5023697;28;20389;-69
2021/11/08 09:08:43;;;;;;;12.65;1.92;;;13.40;77.50;;;;;;5019590;28;20040;-71
2021/11/08 09:11:10;;;;;;;9.70;1.77;;;13.60;77.00;;;;;;5020433;28;20060;-68
2021/11/08 09:13:37;;;;;;;9.80;1.48;;;13.60;75.80;;;;;;5015640;28;20029;-69
2021/11/08 09:16:10;;;;;;;8.80;1.80;;;13.60;75.70;;;;;;5019725;28;20254;-70
2021/11/08 09:18:36;;;;;;;9.13;1.92;;;13.50;76.10;;;;;;5015824;28;20096;-70
2021/11/08 09:21:02;;;;;;;11.07;1.42;;;13.40;77.00;;;;;;5013951;28;20802;-76
2021/11/08 09:23:27;;;;;;;10.13;1.38;;;13.40;77.30;;;;;;5015254;28;20124;-72
2021/11/08 09:25:53;;;;;;;8.65;1.60;;;13.40;77.60;;;;;;5005888;28;20029;-69
2021/11/08 09:28:19;;;;;;;10.05;1.67;;;13.40;77.00;;;;;;5015177;28;20061;-79
2021/11/08 09:30:45;;;;;;;13.07;1.77;;;13.50;77.00;;;;;;5019554;28;20044;-69
2021/11/08 09:33:12;;;;;;;9.05;1.80;;;13.40;77.00;;;;;;5015779;28;20037;-68
2021/11/08 09:35:44;;;;;;;9.63;1.73;;;13.40;76.80;;;;;;5006745;28;20037;-69
2021/11/08 09:38:10;;;;;;;6.20;1.40;;;13.30;76.30;;;;;;5019650;28;20034;-69
2021/11/08 09:40:40;;;;;;;14.68;2.30;;;13.40;77.10;;;;;;5011088;28;20133;-74
2021/11/08 09:43:12;;;;;;;8.77;1.58;;;13.40;77.30;;;;;;5019246;28;20037;-68
2021/11/08 09:45:38;;;;;;;9.75;1.63;;;13.50;76.40;;;;;;5014461;28;21134;-70
2021/11/08 09:48:04;;;;;;;10.98;1.50;;;13.50;76.10;;;;;;5014629;28;20088;-68
2021/11/08 09:50:32;;;;;;;6.28;1.48;;;13.70;75.20;;;;;;5011937;28;20386;-69
2021/11/08 09:53:00;;;;;;;14.20;2.47;;;14.00;74.80;;;;;;5017836;28;20041;-71
2021/11/08 09:55:27;;;;;;;8.80;1.65;;;14.10;73.50;;;;;;5014696;28;20752;-70
2021/11/08 09:57:53;;;;;;;10.27;1.65;;;14.30;73.30;;;;;;4995709;28;20037;-69
2021/11/08 10:00:24;;;;;;;6.43;1.23;;;14.50;72.30;;;;;;5004714;28;20060;-69
2021/11/08 10:02:54;;;;;;;10.52;2.33;;;14.60;72.70;;;;;;5011526;28;20635;-69
2021/11/08 10:05:21;;;;;;;11.05;1.55;;;14.70;72.20;;;;;;5010719;28;20124;-68
2021/11/08 10:07:49;;;;;;;7.03;1.42;;;14.50;71.90;;;;;;5014552;28;20028;-69
2021/11/08 10:10:15;;;;;;;10.85;2.58;;;14.20;72.70;;;;;;5012665;28;20339;-68
2021/11/08 10:12:40;;;;;;;21.85;6.57;;;14.00;74.30;;;;;;5001957;28;20033;-69
2021/11/08 10:15:08;;;;;;;11.00;2.92;;;13.80;74.70;;;;;;5017590;28;20042;-68
2021/11/08 10:17:34;;;;;;;11.98;6.18;;;13.60;75.50;;;;;;5011721;28;20093;-68
2021/11/08 10:19:59;;;;;;;12.20;2.75;;;13.40;76.20;;;;;;5013158;28;20120;-68
2021/11/08 10:22:27;;;;;;;9.18;2.03;;;13.40;76.40;;;;;;5016351;28;20183;-68
2021/11/08 10:25:03;;;;;;;10.52;2.10;;;13.50;76.70;;;;;;5013554;28;20042;-69
2021/11/08 10:27:44;;;;;;;10.65;1.85;;;13.60;77.10;;;;;;5003713;28;20042;-68
2021/11/08 10:30:29;;;;;;;9.55;2.65;;;13.70;75.90;;;;;;5011209;28;20120;-68
2021/11/08 10:33:18;;;;;;;12.18;1.83;;;13.80;76.70;;;;;;5008264;28;20042;-69
2021/11/08 10:35:56;;;;;;;7.32;1.55;;;13.50;74.80;;;;;;5012942;28;20030;-69
2021/11/08 10:38:25;;;;;;;9.77;2.65;;;13.30;75.70;;;;;;5017063;28;20041;-67
2021/11/08 10:40:57;;;;;;;6.07;1.30;;;13.30;76.40;;;;;;5019575;28;20095;-68
2021/11/08 10:43:25;;;;;;;7.90;1.63;;;13.50;75.90;;;;;;5013673;28;20113;-72
2021/11/08 10:45:53;;;;;;;7.18;1.55;;;13.60;74.80;;;;;;5017400;28;20044;-70
2021/11/08 10:48:28;;;;;;;10.73;2.03;;;13.70;74.70;;;;;;5010251;28;20102;-67
2021/11/08 10:50:56;;;;;;;12.20;2.08;;;13.90;74.20;;;;;;5015615;28;20132;-67
2021/11/08 10:53:22;;;;;;;12.43;2.17;;;14.00;73.20;;;;;;5009324;28;20103;-69
2021/11/08 10:55:55;;;;;;;9.15;1.67;;;13.90;72.80;;;;;;5013639;28;20034;-69
2021/11/08 10:58:23;;;;;;;8.98;2.20;;;13.90;73.80;;;;;;5017200;28;20038;-67
2021/11/08 11:00:57;;;;;;;17.73;2.65;;;14.00;74.00;;;;;;5011478;28;20034;-68
2021/11/08 11:03:25;;;;;;;10.40;2.75;;;14.10;73.00;;;;;;5016423;28;20045;-68
2021/11/08 11:06:05;;;;;;;13.98;2.40;;;14.10;72.60;;;;;;5013079;28;20132;-67
2021/11/08 11:08:32;;;;;;;8.23;1.83;;;14.30;72.70;;;;;;5009495;28;20033;-68
2021/11/08 11:11:04;;;;;;;5.78;1.83;;;14.40;71.70;;;;;;5011593;28;20048;-68
2021/11/08 11:13:31;;;;;;;10.13;2.00;;;14.50;71.40;;;;;;5008928;28;20048;-69
2021/11/08 11:16:02;;;;;;;11.20;1.75;;;14.60;71.10;;;;;;4998558;28;20049;-68
2021/11/08 11:18:35;;;;;;;10.30;1.48;;;14.60;71.20;;;;;;5012119;28;20556;-68
2021/11/08 11:21:18;;;;;;;8.80;1.33;;;14.70;71.50;;;;;;5007680;28;20045;-68
2021/11/08 11:23:49;;;;;;;8.80;2.03;;;14.70;71.10;;;;;;5007661;28;20053;-68
2021/11/08 11:26:28;;;;;;;8.23;2.13;;;14.50;70.30;;;;;;5013269;28;20029;-68
2021/11/08 11:28:54;;;;;;;8.38;1.40;;;14.40;70.90;;;;;;5005935;28;20026;-69
2021/11/08 11:31:23;;;;;;;8.13;2.08;;;14.40;71.60;;;;;;5011570;28;20107;-69
2021/11/08 11:33:54;;;;;;;7.70;1.83;;;14.40;71.50;;;;;;5006913;28;20041;-67
2021/11/08 11:36:21;;;;;;;5.28;1.17;;;14.50;70.80;;;;;;5002095;28;20116;-70
2021/11/08 11:38:55;;;;;;;7.38;1.45;;;14.60;70.60;;;;;;5009581;28;20490;-69
2021/11/08 11:41:24;;;;;;;4.25;1.60;;;14.50;70.00;;;;;;5009260;28;20044;-68
2021/11/08 11:43:55;;;;;;;7.80;1.75;;;14.50;70.40;;;;;;5017012;28;20042;-69
2021/11/08 11:46:23;;;;;;;5.55;1.20;;;14.50;70.80;;;;;;5015902;28;20124;-68
2021/11/08 11:48:50;;;;;;;6.57;1.40;;;14.50;70.90;;;;;;5017915;28;20111;-68
2021/11/08 11:51:19;;;;;;;14.73;2.60;;;14.60;71.00;;;;;;5016449;28;20037;-68
2021/11/08 11:53:45;;;;;;;7.40;2.10;;;14.60;70.80;;;;;;5020570;28;20046;-68
2021/11/08 11:56:13;;;;;;;7.63;1.73;;;14.30;70.80;;;;;;5007429;28;20048;-68
2021/11/08 11:58:39;;;;;;;8.23;1.50;;;14.20;71.70;;;;;;5006762;28;20049;-69
2021/11/08 12:01:09;;;;;;;11.60;2.30;;;14.10;71.80;;;;;;5013315;28;20052;-68
2021/11/08 12:03:35;;;;;;;6.75;1.25;;;14.10;72.50;;;;;;5007424;28;20064;-68
2021/11/08 12:06:02;;;;;;;13.65;2.08;;;14.30;71.30;;;;;;5007842;28;20446;-70
2021/11/08 12:08:34;;;;;;;5.10;1.13;;;14.30;71.50;;;;;;5016994;28;20269;-69
2021/11/08 12:11:00;;;;;;;8.35;1.80;;;14.50;71.60;;;;;;5018780;28;20504;-69
2021/11/08 12:13:28;;;;;;;7.40;1.45;;;14.70;70.60;;;;;;5010546;28;20049;-69
2021/11/08 12:15:54;;;;;;;9.07;1.70;;;14.80;70.80;;;;;;5013278;28;20116;-69
2021/11/08 12:18:22;;;;;;;7.97;1.50;;;14.90;70.50;;;;;;5017689;28;20527;-68
2021/11/08 12:20:51;;;;;;;6.28;1.40;;;14.90;68.60;;;;;;5019081;28;20037;-69
2021/11/08 12:23:23;;;;;;;9.88;1.77;;;14.90;68.70;;;;;;5016078;28;20099;-69
2021/11/08 12:25:50;;;;;;;10.80;1.48;;;14.90;68.70;;;;;;5011382;28;20036;-69
2021/11/08 12:28:23;;;;;;;6.03;1.70;;;14.70;69.20;;;;;;5009089;28;20021;-69
2021/11/08 12:30:59;;;;;;;4.93;1.20;;;14.60;69.60;;;;;;4987998;28;20352;-69
2021/11/08 12:33:29;;;;;;;10.25;2.33;;;14.60;70.10;;;;;;5015810;28;20676;-69
2021/11/08 12:35:59;;;;;;;10.10;2.38;;;14.70;69.40;;;;;;5013314;28;20037;-69
2021/11/08 12:38:36;;;;;;;7.53;2.40;;;14.70;68.90;;;;;;5025964;28;20036;-69
2021/11/08 12:41:34;;;;;;;10.55;2.00;;;14.70;69.10;;;;;;5012281;28;20099;-69
2021/11/08 12:44:08;;;;;;;5.32;1.25;;;14.60;68.60;;;;;;5009126;28;20053;-68
2021/11/08 12:46:47;;;;;;;8.73;1.80;;;14.60;69.40;;;;;;5009757;28;20045;-67
2021/11/08 12:49:23;;;;;;;9.98;1.67;;;14.60;69.60;;;;;;5017584;28;20029;-69
2021/11/08 12:51:51;;;;;;;;;;;14.60;69.10;;;;;;5014408;28;20037;-69
2021/11/08 12:54:18;;;;;;;6.80;1.73;;;14.70;68.70;;;;;;5005915;28;19909;-69
2021/11/08 12:56:45;;;;;;;5.20;1.63;;;14.70;69.10;;;;;;5011722;28;20060;-69
2021/11/08 12:59:26;;;;;;;11.95;2.25;;;14.80;68.60;;;;;;5021380;28;20494;-69
2021/11/08 13:02:00;;;;;;;9.18;2.30;;;14.80;68.20;;;;;;5012909;28;20030;-69
2021/11/08 13:04:32;;;;;;;5.97;1.48;;;14.60;67.90;;;;;;5019036;28;20049;-69
2021/11/08 13:07:07;;;;;;;10.20;2.10;;;14.50;68.20;;;;;;5015361;28;20648;-69
2021/11/08 13:09:41;;;;;;;6.37;1.20;;;14.50;69.50;;;;;;5017000;28;20796;-68
2021/11/08 13:12:14;;;;;;;7.63;1.80;;;14.50;69.80;;;;;;5014491;28;20029;-69
2021/11/08 13:14:40;;;;;;;6.03;1.20;;;14.40;69.90;;;;;;5009208;28;20063;-69
2021/11/08 13:17:13;;;;;;;8.68;1.65;;;14.40;69.20;;;;;;5021674;28;20585;-69
2021/11/08 13:19:48;;;;;;;9.50;1.30;;;14.30;69.60;;;;;;5008085;28;20043;-68
2021/11/08 13:22:19;;;;;;;4.50;1.05;;;14.20;70.50;;;;;;5017757;28;20038;-69
2021/11/08 13:24:54;;;;;;;9.55;2.38;;;14.10;70.40;;;;;;5008682;28;20037;-69
2021/11/08 13:27:20;;;;;;;8.95;2.92;;;14.00;70.40;;;;;;5011323;28;20120;-68
2021/11/08 13:29:46;;;;;;;7.18;2.22;;;14.00;70.30;;;;;;5013299;28;20034;-69
2021/11/08 13:32:12;;;;;;;8.82;1.98;;;14.00;70.80;;;;;;5016703;28;20030;-68
2021/11/08 13:34:39;;;;;;;9.57;1.60;;;14.00;71.10;;;;;;5027972;28;20204;-69
2021/11/08 13:37:05;;;;;;;7.40;1.48;;;14.10;70.40;;;;;;5015616;28;20039;-68
2021/11/08 13:39:31;;;;;;;8.00;1.52;;;14.20;70.70;;;;;;5018706;28;20045;-68
2021/11/08 13:41:56;;;;;;;7.25;1.83;;;14.20;69.80;;;;;;5022524;28;20036;-68
2021/11/08 13:44:22;;;;;;;6.82;1.92;;;14.30;69.60;;;;;;5013298;28;20938;-68
2021/11/08 13:46:52;;;;;;;7.85;1.50;;;14.30;69.30;;;;;;5011769;28;20107;-68
2021/11/08 13:49:20;;;;;;;8.13;1.63;;;14.30;69.00;;;;;;5010957;28;20030;-68
2021/11/08 13:51:58;;;;;;;5.85;1.17;;;14.30;69.50;;;;;;5018941;28;20040;-69
2021/11/08 13:54:27;;;;;;;8.27;1.38;;;14.10;70.30;;;;;;5012646;28;20042;-68
2021/11/08 13:56:57;;;;;;;4.68;1.10;;;13.90;69.80;;;;;;5021534;28;20072;-68
2021/11/08 13:59:27;;;;;;;6.50;1.38;;;13.70;71.20;;;;;;5017736;28;20045;-69
2021/11/08 14:02:04;;;;;;;5.45;1.52;;;13.50;71.90;;;;;;5018298;28;20096;-67
2021/11/08 14:04:34;;;;;;;4.13;0.85;;;13.50;72.80;;;;;;5022111;28;20132;-68
2021/11/08 14:07:00;;;;;;;5.72;1.10;;;13.50;72.90;;;;;;5012879;28;20107;-68
2021/11/08 14:09:27;;;;;;;8.40;1.40;;;13.50;72.70;;;;;;5024516;28;20026;-68
2021/11/08 14:11:54;;;;;;;5.20;1.75;;;13.40;73.30;;;;;;5011738;28;20069;-69
2021/11/08 14:14:26;;;;;;;7.00;1.38;;;13.30;73.80;;;;;;5012438;28;20080;-68
2021/11/08 14:16:54;;;;;;;5.68;1.58;;;13.30;74.70;;;;;;5015631;28;20034;-68
2021/11/08 14:19:21;;;;;;;6.70;2.00;;;13.20;74.40;;;;;;5016018;28;20037;-68
2021/11/08 14:21:52;;;;;;;10.70;2.00;;;13.10;74.10;;;;;;5007840;28;20041;-68
2021/11/08 14:24:23;;;;;;;7.60;1.30;;;13.10;74.40;;;;;;5017626;28;20037;-68
2021/11/08 14:26:59;;;;;;;5.75;1.33;;;13.10;74.40;;;;;;5017476;28;20033;-68
2021/11/08 14:29:29;;;;;;;6.72;1.70;;;13.10;74.40;;;;;;5017529;28;20071;-68
2021/11/08 14:32:03;;;;;;;11.35;2.60;;;13.10;75.10;;;;;;5016248;28;20026;-68